sensor_id;sensor_type;location;lat;lon;timestamp;pressure;altitude;pressure_sealevel;temperature;humidity
9187;BME280;7273;48.902;9.410;2023-07-09T00:00:18;98307.34;;;22.69;46.44
9187;BME280;7273;48.902;9.410;2023-07-09T00:02:45;98313.22;;;22.67;45.45
9187;BME280;7273;48.902;9.410;2023-07-09T00:05:13;98310.38;;;22.64;45.54
9187;BME280;7273;48.902;9.410;2023-07-09T00:07:39;98307.16;;;22.62;45.44
9187;BME280;7273;48.902;9.410;2023-07-09T00:10:20;98302.34;;;22.58;46.67
9187;BME280;7273;48.902;9.410;2023-07-09T00:12:46;98318.78;;;22.55;45.68
9187;BME280;7273;48.902;9.410;2023-07-09T00:15:13;98310.94;;;22.45;45.93
9187;BME280;7273;48.902;9.410;2023-07-09T00:17:41;98306.47;;;22.40;45.96
9187;BME280;7273;48.902;9.410;2023-07-09T00:20:16;98312.34;;;22.39;46.49
9187;BME280;7273;48.902;9.410;2023-07-09T00:22:43;98317.94;;;22.42;45.91
9187;BME280;7273;48.902;9.410;2023-07-09T00:25:18;98311.88;;;22.37;50.60
9187;BME280;7273;48.902;9.410;2023-07-09T00:27:43;98308.91;;;22.30;46.02
9187;BME280;7273;48.902;9.410;2023-07-09T00:30:21;98311.66;;;22.30;50.33
9187;BME280;7273;48.902;9.410;2023-07-09T00:32:50;98318.22;;;22.25;46.10
9187;BME280;7273;48.902;9.410;2023-07-09T00:35:17;98313.16;;;22.27;45.71
9187;BME280;7273;48.902;9.410;2023-07-09T00:37:44;98319.56;;;22.31;45.88
9187;BME280;7273;48.902;9.410;2023-07-09T00:40:19;98319.81;;;22.26;46.74
9187;BME280;7273;48.902;9.410;2023-07-09T00:42:48;98309.38;;;22.20;46.08
9187;BME280;7273;48.902;9.410;2023-07-09T00:45:23;98324.78;;;22.21;46.58
9187;BME280;7273;48.902;9.410;2023-07-09T00:47:55;98329.59;;;22.12;46.71
9187;BME280;7273;48.902;9.410;2023-07-09T00:50:31;98324.75;;;22.09;47.02
9187;BME280;7273;48.902;9.410;2023-07-09T00:53:02;98330.97;;;22.06;46.65
9187;BME280;7273;48.902;9.410;2023-07-09T00:55:35;98335.66;;;22.05;46.58
9187;BME280;7273;48.902;9.410;2023-07-09T00:58:07;98328.91;;;22.03;46.90
9187;BME280;7273;48.902;9.410;2023-07-09T01:00:40;98324.88;;;22.00;47.26
9187;BME280;7273;48.902;9.410;2023-07-09T01:03:15;98320.28;;;21.92;47.05
9187;BME280;7273;48.902;9.410;2023-07-09T01:05:45;98324.53;;;21.90;46.95
9187;BME280;7273;48.902;9.410;2023-07-09T01:08:11;98333.81;;;21.85;46.91
9187;BME280;7273;48.902;9.410;2023-07-09T01:10:37;98333.72;;;21.82;47.19
9187;BME280;7273;48.902;9.410;2023-07-09T01:13:06;98327.06;;;21.83;47.25
9187;BME280;7273;48.902;9.410;2023-07-09T01:15:34;98327.63;;;21.76;47.15
9187;BME280;7273;48.902;9.410;2023-07-09T01:18:03;98330.91;;;21.70;47.37
9187;BME280;7273;48.902;9.410;2023-07-09T01:20:28;98324.13;;;21.67;47.58
9187;BME280;7273;48.902;9.410;2023-07-09T01:22:54;98333.41;;;21.63;47.65
9187;BME280;7273;48.902;9.410;2023-07-09T01:25:23;98322.75;;;21.61;47.66
9187;BME280;7273;48.902;9.410;2023-07-09T01:27:49;98327.34;;;21.57;47.77
9187;BME280;7273;48.902;9.410;2023-07-09T01:30:22;98326.41;;;21.53;48.34
9187;BME280;7273;48.902;9.410;2023-07-09T01:32:50;98335.69;;;21.49;47.94
9187;BME280;7273;48.902;9.410;2023-07-09T01:35:19;98328.47;;;21.44;48.14
9187;BME280;7273;48.902;9.410;2023-07-09T01:37:45;98329.13;;;21.41;48.08
9187;BME280;7273;48.902;9.410;2023-07-09T01:40:14;98331.88;;;21.41;48.41
9187;BME280;7273;48.902;9.410;2023-07-09T01:42:40;98330.28;;;21.40;48.18
9187;BME280;7273;48.902;9.410;2023-07-09T01:45:08;98329.69;;;21.34;48.47
9187;BME280;7273;48.902;9.410;2023-07-09T01:47:36;98329.09;;;21.29;48.65
9187;BME280;7273;48.902;9.410;2023-07-09T01:50:03;98332.19;;;21.27;48.66
9187;BME280;7273;48.902;9.410;2023-07-09T01:52:30;98329.09;;;21.29;48.54
9187;BME280;7273;48.902;9.410;2023-07-09T01:54:57;98327.03;;;21.26;48.71
9187;BME280;7273;48.902;9.410;2023-07-09T01:57:25;98325.28;;;21.21;48.79
9187;BME280;7273;48.902;9.410;2023-07-09T01:59:54;98325.63;;;21.20;48.88
9187;BME280;7273;48.902;9.410;2023-07-09T02:02:23;98334.09;;;21.15;49.35
9187;BME280;7273;48.902;9.410;2023-07-09T02:04:54;98328.13;;;21.13;49.37
9187;BME280;7273;48.902;9.410;2023-07-09T02:07:22;98333.16;;;21.11;48.98
9187;BME280;7273;48.902;9.410;2023-07-09T02:09:48;98339.00;;;21.09;48.98
9187;BME280;7273;48.902;9.410;2023-07-09T02:12:15;98331.75;;;21.05;49.10
9187;BME280;7273;48.902;9.410;2023-07-09T02:14:42;98340.34;;;21.03;49.23
9187;BME280;7273;48.902;9.410;2023-07-09T02:17:09;98344.59;;;21.01;49.31
9187;BME280;7273;48.902;9.410;2023-07-09T02:19:34;98334.25;;;20.98;49.25
9187;BME280;7273;48.902;9.410;2023-07-09T02:22:00;98346.84;;;20.99;49.16
9187;BME280;7273;48.902;9.410;2023-07-09T02:24:25;98337.66;;;20.95;49.38
9187;BME280;7273;48.902;9.410;2023-07-09T02:26:56;98340.41;;;20.95;49.31
9187;BME280;7273;48.902;9.410;2023-07-09T02:29:22;98339.59;;;20.94;49.25
9187;BME280;7273;48.902;9.410;2023-07-09T02:31:49;98342.34;;;20.94;49.35
9187;BME280;7273;48.902;9.410;2023-07-09T02:34:15;98337.72;;;20.86;49.60
9187;BME280;7273;48.902;9.410;2023-07-09T02:36:40;98337.59;;;20.83;49.58
9187;BME280;7273;48.902;9.410;2023-07-09T02:39:12;98347.00;;;20.82;49.62
9187;BME280;7273;48.902;9.410;2023-07-09T02:41:41;98344.88;;;20.79;49.75
9187;BME280;7273;48.902;9.410;2023-07-09T02:44:07;98348.31;;;20.76;49.55
9187;BME280;7273;48.902;9.410;2023-07-09T02:46:33;98350.00;;;20.68;49.94
9187;BME280;7273;48.902;9.410;2023-07-09T02:48:59;98347.59;;;20.67;49.97
9187;BME280;7273;48.902;9.410;2023-07-09T02:51:25;98347.78;;;20.62;49.98
9187;BME280;7273;48.902;9.410;2023-07-09T02:53:54;98356.72;;;20.59;50.26
9187;BME280;7273;48.902;9.410;2023-07-09T02:56:19;98351.41;;;20.54;50.39
9187;BME280;7273;48.902;9.410;2023-07-09T02:58:45;98349.78;;;20.53;50.42
9187;BME280;7273;48.902;9.410;2023-07-09T03:01:10;98355.94;;;20.50;50.38
9187;BME280;7273;48.902;9.410;2023-07-09T03:03:35;98362.94;;;20.47;50.37
9187;BME280;7273;48.902;9.410;2023-07-09T03:06:01;98363.59;;;20.44;50.45
9187;BME280;7273;48.902;9.410;2023-07-09T03:08:26;98368.94;;;20.41;50.71
9187;BME280;7273;48.902;9.410;2023-07-09T03:10:51;98368.00;;;20.37;50.83
9187;BME280;7273;48.902;9.410;2023-07-09T03:13:17;98378.50;;;20.35;50.69
9187;BME280;7273;48.902;9.410;2023-07-09T03:15:42;98374.81;;;20.31;50.86
9187;BME280;7273;48.902;9.410;2023-07-09T03:18:07;98369.66;;;20.29;50.90
9187;BME280;7273;48.902;9.410;2023-07-09T03:20:33;98367.91;;;20.25;50.92
9187;BME280;7273;48.902;9.410;2023-07-09T03:22:58;98366.63;;;20.22;51.01
9187;BME280;7273;48.902;9.410;2023-07-09T03:25:23;98363.53;;;20.24;51.09
9187;BME280;7273;48.902;9.410;2023-07-09T03:27:49;98362.28;;;20.21;51.02
9187;BME280;7273;48.902;9.410;2023-07-09T03:30:14;98365.66;;;20.18;51.23
9187;BME280;7273;48.902;9.410;2023-07-09T03:32:40;98369.88;;;20.16;51.12
9187;BME280;7273;48.902;9.410;2023-07-09T03:35:05;98365.38;;;20.11;51.40
9187;BME280;7273;48.902;9.410;2023-07-09T03:37:31;98366.63;;;20.14;51.21
9187;BME280;7273;48.902;9.410;2023-07-09T03:39:56;98369.38;;;20.14;51.37
9187;BME280;7273;48.902;9.410;2023-07-09T03:42:22;98369.22;;;20.10;51.23
9187;BME280;7273;48.902;9.410;2023-07-09T03:44:47;98377.81;;;20.08;51.58
9187;BME280;7273;48.902;9.410;2023-07-09T03:47:13;98370.72;;;20.08;51.61
9187;BME280;7273;48.902;9.410;2023-07-09T03:49:38;98376.22;;;20.08;51.65
9187;BME280;7273;48.902;9.410;2023-07-09T03:52:06;98373.47;;;20.08;51.58
9187;BME280;7273;48.902;9.410;2023-07-09T03:54:32;98380.38;;;20.14;51.46
9187;BME280;7273;48.902;9.410;2023-07-09T03:56:58;98382.03;;;20.15;51.58
9187;BME280;7273;48.902;9.410;2023-07-09T03:59:23;98371.03;;;20.15;51.47
9187;BME280;7273;48.902;9.410;2023-07-09T04:01:49;98382.03;;;20.15;51.72
9187;BME280;7273;48.902;9.410;2023-07-09T04:04:14;98384.78;;;20.15;51.63
9187;BME280;7273;48.902;9.410;2023-07-09T04:06:39;98384.44;;;20.08;51.91
9187;BME280;7273;48.902;9.410;2023-07-09T04:09:05;98384.09;;;20.09;51.81
9187;BME280;7273;48.902;9.410;2023-07-09T04:11:30;98381.69;;;20.08;51.98
9187;BME280;7273;48.902;9.410;2023-07-09T04:13:56;98389.94;;;20.08;51.80
9187;BME280;7273;48.902;9.410;2023-07-09T04:16:21;98385.72;;;20.10;51.85
9187;BME280;7273;48.902;9.410;2023-07-09T04:18:47;98387.34;;;20.11;51.88
9187;BME280;7273;48.902;9.410;2023-07-09T04:21:12;98387.53;;;20.15;51.92
9187;BME280;7273;48.902;9.410;2023-07-09T04:23:37;98381.03;;;20.11;52.16
9187;BME280;7273;48.902;9.410;2023-07-09T04:26:03;98386.03;;;20.17;51.98
9187;BME280;7273;48.902;9.410;2023-07-09T04:28:30;98385.06;;;20.13;52.00
9187;BME280;7273;48.902;9.410;2023-07-09T04:30:56;98390.25;;;20.15;52.09
9187;BME280;7273;48.902;9.410;2023-07-09T04:33:21;98392.34;;;20.18;52.08
9187;BME280;7273;48.902;9.410;2023-07-09T04:35:47;98387.78;;;20.22;51.99
9187;BME280;7273;48.902;9.410;2023-07-09T04:38:14;98390.34;;;20.27;51.96
9187;BME280;7273;48.902;9.410;2023-07-09T04:40:40;98385.19;;;20.25;52.14
9187;BME280;7273;48.902;9.410;2023-07-09T04:43:05;98395.84;;;20.27;52.26
9187;BME280;7273;48.902;9.410;2023-07-09T04:45:30;98389.22;;;20.28;52.38
9187;BME280;7273;48.902;9.410;2023-07-09T04:47:56;98394.53;;;20.33;52.31
9187;BME280;7273;48.902;9.410;2023-07-09T04:50:21;98397.53;;;20.40;52.13
9187;BME280;7273;48.902;9.410;2023-07-09T04:52:47;98397.34;;;20.45;52.26
9187;BME280;7273;48.902;9.410;2023-07-09T04:55:12;98392.50;;;20.50;52.04
9187;BME280;7273;48.902;9.410;2023-07-09T04:57:37;98398.47;;;20.52;52.09
9187;BME280;7273;48.902;9.410;2023-07-09T05:00:04;98393.56;;;20.58;51.97
9187;BME280;7273;48.902;9.410;2023-07-09T05:02:33;98398.38;;;20.61;52.15
9187;BME280;7273;48.902;9.410;2023-07-09T05:04:58;98404.16;;;20.68;52.05
9187;BME280;7273;48.902;9.410;2023-07-09T05:07:23;98400.06;;;20.74;52.07
9187;BME280;7273;48.902;9.410;2023-07-09T05:09:49;98397.59;;;20.81;52.02
9187;BME280;7273;48.902;9.410;2023-07-09T05:12:14;98403.72;;;20.86;52.09
9187;BME280;7273;48.902;9.410;2023-07-09T05:14:40;98402.84;;;20.94;52.17
9187;BME280;7273;48.902;9.410;2023-07-09T05:17:06;98403.16;;;21.01;52.07
9187;BME280;7273;48.902;9.410;2023-07-09T05:19:32;98405.47;;;21.11;51.96
9187;BME280;7273;48.902;9.410;2023-07-09T05:21:58;98408.16;;;21.20;52.08
9187;BME280;7273;48.902;9.410;2023-07-09T05:24:23;98402.13;;;21.26;52.07
9187;BME280;7273;48.902;9.410;2023-07-09T05:26:48;98409.47;;;21.34;52.05
9187;BME280;7273;48.902;9.410;2023-07-09T05:29:14;98401.84;;;21.40;51.91
9187;BME280;7273;48.902;9.410;2023-07-09T05:31:39;98408.03;;;21.49;52.16
9187;BME280;7273;48.902;9.410;2023-07-09T05:34:07;98405.06;;;21.54;52.05
9187;BME280;7273;48.902;9.410;2023-07-09T05:36:33;98410.97;;;21.65;52.02
9187;BME280;7273;48.902;9.410;2023-07-09T05:38:58;98412.84;;;21.73;51.94
9187;BME280;7273;48.902;9.410;2023-07-09T05:41:23;98404.16;;;21.83;52.11
9187;BME280;7273;48.902;9.410;2023-07-09T05:43:50;98420.81;;;21.86;52.07
9187;BME280;7273;48.902;9.410;2023-07-09T05:46:16;98416.22;;;21.90;52.21
9187;BME280;7273;48.902;9.410;2023-07-09T05:48:41;98410.03;;;21.93;52.45
9187;BME280;7273;48.902;9.410;2023-07-09T05:51:07;98416.84;;;22.08;52.13
9187;BME280;7273;48.902;9.410;2023-07-09T05:53:32;98412.50;;;22.19;52.10
9187;BME280;7273;48.902;9.410;2023-07-09T05:55:58;98420.50;;;22.36;51.99
9187;BME280;7273;48.902;9.410;2023-07-09T05:58:24;98421.69;;;22.35;52.28
9187;BME280;7273;48.902;9.410;2023-07-09T06:00:50;98424.22;;;22.40;52.25
9187;BME280;7273;48.902;9.410;2023-07-09T06:03:22;98426.66;;;22.53;52.10
9187;BME280;7273;48.902;9.410;2023-07-09T06:05:48;98412.13;;;22.69;51.95
9187;BME280;7273;48.902;9.410;2023-07-09T06:08:18;98410.66;;;22.83;51.87
9187;BME280;7273;48.902;9.410;2023-07-09T06:10:58;98420.50;;;22.96;52.92
9187;BME280;7273;48.902;9.410;2023-07-09T06:13:24;98416.97;;;23.23;51.60
9187;BME280;7273;48.902;9.410;2023-07-09T06:15:51;98416.25;;;23.38;51.49
9187;BME280;7273;48.902;9.410;2023-07-09T06:18:17;98416.75;;;23.56;51.10
9187;BME280;7273;48.902;9.410;2023-07-09T06:20:47;98418.00;;;24.02;50.64
9187;BME280;7273;48.902;9.410;2023-07-09T06:23:12;98423.13;;;24.15;50.21
9187;BME280;7273;48.902;9.410;2023-07-09T06:25:38;98420.63;;;24.26;50.10
9187;BME280;7273;48.902;9.410;2023-07-09T06:28:03;98422.28;;;24.46;49.92
9187;BME280;7273;48.902;9.410;2023-07-09T06:30:29;98422.28;;;24.61;49.88
9187;BME280;7273;48.902;9.410;2023-07-09T06:32:54;98418.72;;;24.76;49.81
9187;BME280;7273;48.902;9.410;2023-07-09T06:35:19;98419.50;;;24.92;49.32
9187;BME280;7273;48.902;9.410;2023-07-09T06:37:45;98424.22;;;25.11;49.26
9187;BME280;7273;48.902;9.410;2023-07-09T06:40:10;98427.03;;;25.30;48.89
9187;BME280;7273;48.902;9.410;2023-07-09T06:42:38;98433.53;;;25.38;48.93
9187;BME280;7273;48.902;9.410;2023-07-09T06:45:04;98420.34;;;25.50;48.65
9187;BME280;7273;48.902;9.410;2023-07-09T06:47:29;98426.72;;;25.73;48.42
9187;BME280;7273;48.902;9.410;2023-07-09T06:49:55;98435.34;;;25.87;48.39
9187;BME280;7273;48.902;9.410;2023-07-09T06:52:20;98433.00;;;25.89;48.32
9187;BME280;7273;48.902;9.410;2023-07-09T06:54:45;98432.38;;;25.99;48.69
9187;BME280;7273;48.902;9.410;2023-07-09T06:57:11;98434.66;;;26.13;48.47
9187;BME280;7273;48.902;9.410;2023-07-09T06:59:36;98437.69;;;26.27;48.47
9187;BME280;7273;48.902;9.410;2023-07-09T07:02:03;98437.53;;;26.42;48.23
9187;BME280;7273;48.902;9.410;2023-07-09T07:04:28;98439.06;;;26.63;48.00
9187;BME280;7273;48.902;9.410;2023-07-09T07:06:54;98439.38;;;26.80;47.73
9187;BME280;7273;48.902;9.410;2023-07-09T07:09:22;98445.50;;;26.93;47.82
9187;BME280;7273;48.902;9.410;2023-07-09T07:11:48;98437.00;;;27.08;47.52
9187;BME280;7273;48.902;9.410;2023-07-09T07:14:13;98448.69;;;27.21;47.40
9187;BME280;7273;48.902;9.410;2023-07-09T07:16:39;98446.47;;;27.30;47.60
9187;BME280;7273;48.902;9.410;2023-07-09T07:19:04;98439.34;;;27.32;47.67
9187;BME280;7273;48.902;9.410;2023-07-09T07:21:31;98435.09;;;27.42;47.13
9187;BME280;7273;48.902;9.410;2023-07-09T07:23:56;98433.88;;;27.39;47.38
9187;BME280;7273;48.902;9.410;2023-07-09T07:26:22;98434.34;;;27.45;47.29
9187;BME280;7273;48.902;9.410;2023-07-09T07:28:47;98433.72;;;27.58;47.04
9187;BME280;7273;48.902;9.410;2023-07-09T07:31:13;98434.63;;;27.66;46.96
9187;BME280;7273;48.902;9.410;2023-07-09T07:33:40;98429.50;;;27.71;47.33
9187;BME280;7273;48.902;9.410;2023-07-09T07:36:07;98427.09;;;27.70;47.22
9187;BME280;7273;48.902;9.410;2023-07-09T07:38:32;98426.28;;;27.69;47.11
9187;BME280;7273;48.902;9.410;2023-07-09T07:40:58;98426.81;;;27.79;47.08
9187;BME280;7273;48.902;9.410;2023-07-09T07:43:23;98426.28;;;27.69;47.27
9187;BME280;7273;48.902;9.410;2023-07-09T07:45:49;98420.00;;;27.73;47.29
9187;BME280;7273;48.902;9.410;2023-07-09T07:48:14;98426.72;;;27.71;46.89
9187;BME280;7273;48.902;9.410;2023-07-09T07:50:40;98425.69;;;27.87;46.62
9187;BME280;7273;48.902;9.410;2023-07-09T07:53:06;98421.50;;;27.66;46.83
9187;BME280;7273;48.902;9.410;2023-07-09T07:55:33;98417.28;;;27.80;46.80
9187;BME280;7273;48.902;9.410;2023-07-09T07:57:59;98419.28;;;27.79;46.54
9187;BME280;7273;48.902;9.410;2023-07-09T08:00:28;98414.50;;;27.80;46.93
9187;BME280;7273;48.902;9.410;2023-07-09T08:02:53;98414.34;;;27.99;46.55
9187;BME280;7273;48.902;9.410;2023-07-09T08:05:19;98414.41;;;28.06;46.42
9187;BME280;7273;48.902;9.410;2023-07-09T08:07:44;98414.94;;;28.18;46.11
9187;BME280;7273;48.902;9.410;2023-07-09T08:10:11;98410.69;;;28.31;45.99
9187;BME280;7273;48.902;9.410;2023-07-09T08:12:37;98410.72;;;28.38;45.98
9187;BME280;7273;48.902;9.410;2023-07-09T08:15:03;98409.25;;;28.51;45.85
9187;BME280;7273;48.902;9.410;2023-07-09T08:17:29;98408.94;;;28.60;45.62
9187;BME280;7273;48.902;9.410;2023-07-09T08:19:55;98412.22;;;28.76;45.41
9187;BME280;7273;48.902;9.410;2023-07-09T08:22:21;98407.50;;;28.80;45.60
9187;BME280;7273;48.902;9.410;2023-07-09T08:24:47;98406.44;;;28.98;45.31
9187;BME280;7273;48.902;9.410;2023-07-09T08:27:13;98407.22;;;28.99;45.14
9187;BME280;7273;48.902;9.410;2023-07-09T08:29:39;98409.75;;;29.18;45.06
9187;BME280;7273;48.902;9.410;2023-07-09T08:32:07;98396.66;;;29.29;44.87
9187;BME280;7273;48.902;9.410;2023-07-09T08:34:33;98401.41;;;29.29;44.90
9187;BME280;7273;48.902;9.410;2023-07-09T08:36:58;98406.31;;;29.49;44.64
9187;BME280;7273;48.902;9.410;2023-07-09T08:39:24;98401.22;;;29.69;44.24
9187;BME280;7273;48.902;9.410;2023-07-09T08:41:57;98409.25;;;29.91;43.53
9187;BME280;7273;48.902;9.410;2023-07-09T08:47:18;98401.28;;;30.04;43.11
9187;BME280;7273;48.902;9.410;2023-07-09T08:50:10;98411.28;;;30.05;43.57
9187;BME280;7273;48.902;9.410;2023-07-09T08:52:42;98399.69;;;29.99;43.88
9187;BME280;7273;48.902;9.410;2023-07-09T08:55:14;98405.25;;;29.96;42.44
9187;BME280;7273;48.902;9.410;2023-07-09T08:57:44;98411.66;;;30.10;43.71
9187;BME280;7273;48.902;9.410;2023-07-09T09:00:21;98406.53;;;30.30;43.29
9187;BME280;7273;48.902;9.410;2023-07-09T09:02:57;98414.91;;;30.51;43.10
9187;BME280;7273;48.902;9.410;2023-07-09T09:05:24;98411.31;;;30.68;42.96
9187;BME280;7273;48.902;9.410;2023-07-09T09:13:36;98414.88;;;31.00;42.16
9187;BME280;7273;48.902;9.410;2023-07-09T09:16:06;98411.31;;;31.03;41.59
9187;BME280;7273;48.902;9.410;2023-07-09T09:18:41;98416.03;;;31.13;41.18
9187;BME280;7273;48.902;9.410;2023-07-09T09:21:15;98409.25;;;31.21;41.62
9187;BME280;7273;48.902;9.410;2023-07-09T09:23:51;98404.03;;;31.27;41.05
9187;BME280;7273;48.902;9.410;2023-07-09T09:26:32;98411.63;;;31.33;40.19
9187;BME280;7273;48.902;9.410;2023-07-09T09:28:58;98412.00;;;31.42;41.21
9187;BME280;7273;48.902;9.410;2023-07-09T09:31:26;98403.56;;;31.49;41.11
9187;BME280;7273;48.902;9.410;2023-07-09T09:33:52;98400.31;;;31.65;40.99
9187;BME280;7273;48.902;9.410;2023-07-09T09:36:23;98405.41;;;31.81;40.32
9187;BME280;7273;48.902;9.410;2023-07-09T09:38:49;98405.38;;;31.95;40.35
9187;BME280;7273;48.902;9.410;2023-07-09T09:41:21;98394.09;;;32.05;39.85
9187;BME280;7273;48.902;9.410;2023-07-09T09:43:48;98402.84;;;32.14;40.30
9187;BME280;7273;48.902;9.410;2023-07-09T09:46:21;98391.47;;;32.35;39.82
9187;BME280;7273;48.902;9.410;2023-07-09T09:48:49;98400.16;;;32.51;39.75
9187;BME280;7273;48.902;9.410;2023-07-09T09:51:17;98402.88;;;32.62;39.66
9187;BME280;7273;48.902;9.410;2023-07-09T09:54:03;98400.81;;;32.69;38.59
9187;BME280;7273;48.902;9.410;2023-07-09T09:56:37;98403.94;;;32.79;39.69
9187;BME280;7273;48.902;9.410;2023-07-09T09:59:03;98400.63;;;32.91;39.13
9187;BME280;7273;48.902;9.410;2023-07-09T10:01:33;98412.16;;;33.00;38.95
9187;BME280;7273;48.902;9.410;2023-07-09T10:04:04;98405.81;;;32.92;38.81
9187;BME280;7273;48.902;9.410;2023-07-09T10:06:38;98403.66;;;33.07;35.97
9187;BME280;7273;48.902;9.410;2023-07-09T10:09:16;98402.06;;;33.06;36.33
9187;BME280;7273;48.902;9.410;2023-07-09T10:11:47;98395.41;;;32.93;37.87
9187;BME280;7273;48.902;9.410;2023-07-09T10:14:26;98393.03;;;32.88;34.06
9187;BME280;7273;48.902;9.410;2023-07-09T10:17:04;98381.38;;;32.89;37.03
9187;BME280;7273;48.902;9.410;2023-07-09T10:20:17;98375.19;;;33.08;37.63
9187;BME280;7273;48.902;9.410;2023-07-09T10:24:58;98376.94;;;33.32;37.09
9187;BME280;7273;48.902;9.410;2023-07-09T10:27:53;98380.56;;;33.29;33.99
9187;BME280;7273;48.902;9.410;2023-07-09T10:30:35;98379.16;;;33.48;36.14
9187;BME280;7273;48.902;9.410;2023-07-09T10:38:17;98370.81;;;33.71;34.00
9187;BME280;7273;48.902;9.410;2023-07-09T10:40:50;98367.31;;;33.90;35.79
9187;BME280;7273;48.902;9.410;2023-07-09T10:43:22;98371.19;;;34.03;35.68
9187;BME280;7273;48.902;9.410;2023-07-09T10:45:57;98369.06;;;34.11;34.85
9187;BME280;7273;48.902;9.410;2023-07-09T10:48:39;98371.63;;;34.25;33.79
9187;BME280;7273;48.902;9.410;2023-07-09T10:51:27;98367.91;;;34.31;34.42
9187;BME280;7273;48.902;9.410;2023-07-09T10:56:42;98358.94;;;34.40;35.06
9187;BME280;7273;48.902;9.410;2023-07-09T10:59:24;98352.50;;;34.43;33.41
9187;BME280;7273;48.902;9.410;2023-07-09T11:01:56;98361.56;;;34.54;34.17
9187;BME280;7273;48.902;9.410;2023-07-09T11:04:47;98360.94;;;34.43;32.27
9187;BME280;7273;48.902;9.410;2023-07-09T11:07:20;98358.31;;;34.55;33.76
9187;BME280;7273;48.902;9.410;2023-07-09T11:09:49;98346.59;;;34.60;34.33
9187;BME280;7273;48.902;9.410;2023-07-09T11:12:40;98340.59;;;34.58;32.29
9187;BME280;7273;48.902;9.410;2023-07-09T11:15:15;98347.34;;;34.84;33.26
9187;BME280;7273;48.902;9.410;2023-07-09T11:17:44;98344.94;;;35.05;33.47
9187;BME280;7273;48.902;9.410;2023-07-09T11:20:33;98336.53;;;34.82;31.95
9187;BME280;7273;48.902;9.410;2023-07-09T11:23:05;98339.03;;;35.19;31.10
9187;BME280;7273;48.902;9.410;2023-07-09T11:25:44;98339.94;;;35.33;33.34
9187;BME280;7273;48.902;9.410;2023-07-09T11:28:10;98336.00;;;35.30;33.42
9187;BME280;7273;48.902;9.410;2023-07-09T11:33:20;98334.84;;;35.47;32.86
9187;BME280;7273;48.902;9.410;2023-07-09T11:35:51;98326.97;;;35.58;32.64
9187;BME280;7273;48.902;9.410;2023-07-09T11:38:24;98325.22;;;35.64;31.21
9187;BME280;7273;48.902;9.410;2023-07-09T11:40:51;98320.97;;;35.56;32.53
9187;BME280;7273;48.902;9.410;2023-07-09T11:43:28;98330.13;;;35.60;30.89
9187;BME280;7273;48.902;9.410;2023-07-09T11:45:56;98326.25;;;35.90;32.11
9187;BME280;7273;48.902;9.410;2023-07-09T11:48:26;98320.06;;;35.79;31.74
9187;BME280;7273;48.902;9.410;2023-07-09T11:50:54;98319.66;;;35.96;31.54
9187;BME280;7273;48.902;9.410;2023-07-09T11:53:37;98311.75;;;36.07;30.35
9187;BME280;7273;48.902;9.410;2023-07-09T11:56:08;98312.72;;;36.17;31.38
9187;BME280;7273;48.902;9.410;2023-07-09T11:58:33;98308.69;;;36.34;31.36
9187;BME280;7273;48.902;9.410;2023-07-09T12:01:00;98313.84;;;36.19;31.38
9187;BME280;7273;48.902;9.410;2023-07-09T12:03:35;98307.91;;;36.78;29.77
9187;BME280;7273;48.902;9.410;2023-07-09T12:06:16;98308.41;;;37.18;28.89
9187;BME280;7273;48.902;9.410;2023-07-09T12:08:44;98319.25;;;37.60;29.84
9187;BME280;7273;48.902;9.410;2023-07-09T12:11:21;98313.19;;;37.87;25.68
9187;BME280;7273;48.902;9.410;2023-07-09T12:13:46;98308.88;;;38.33;29.89
9187;BME280;7273;48.902;9.410;2023-07-09T12:16:27;98310.47;;;38.21;25.01
9187;BME280;7273;48.902;9.410;2023-07-09T12:18:53;98319.91;;;38.52;29.52
9187;BME280;7273;48.902;9.410;2023-07-09T12:21:19;98308.06;;;38.32;29.98
9187;BME280;7273;48.902;9.410;2023-07-09T12:23:45;98315.09;;;38.28;29.85
9187;BME280;7273;48.902;9.410;2023-07-09T12:26:14;98299.78;;;38.50;29.36
9187;BME280;7273;48.902;9.410;2023-07-09T12:28:40;98298.66;;;38.48;29.76
9187;BME280;7273;48.902;9.410;2023-07-09T12:31:16;98293.66;;;38.64;27.30
9187;BME280;7273;48.902;9.410;2023-07-09T12:33:49;98295.91;;;38.69;28.86
9187;BME280;7273;48.902;9.410;2023-07-09T12:36:16;98291.44;;;38.81;29.18
9187;BME280;7273;48.902;9.410;2023-07-09T12:38:48;98300.00;;;38.90;28.83
9187;BME280;7273;48.902;9.410;2023-07-09T12:41:33;98285.72;;;38.93;27.72
9187;BME280;7273;48.902;9.410;2023-07-09T12:44:01;98286.03;;;38.74;29.18
9187;BME280;7273;48.902;9.410;2023-07-09T12:46:27;98279.25;;;38.71;28.62
9187;BME280;7273;48.902;9.410;2023-07-09T12:48:54;98275.66;;;38.71;28.12
9187;BME280;7273;48.902;9.410;2023-07-09T12:51:22;98274.66;;;38.52;28.39
9187;BME280;7273;48.902;9.410;2023-07-09T12:56:34;98270.56;;;38.19;28.28
9187;BME280;7273;48.902;9.410;2023-07-09T12:59:01;98261.50;;;38.12;28.25
9187;BME280;7273;48.902;9.410;2023-07-09T13:01:33;98269.63;;;38.22;27.19
9187;BME280;7273;48.902;9.410;2023-07-09T13:04:01;98269.44;;;38.17;28.18
9187;BME280;7273;48.902;9.410;2023-07-09T13:06:35;98261.88;;;38.14;27.36
9187;BME280;7273;48.902;9.410;2023-07-09T13:09:01;98253.59;;;38.07;28.12
9187;BME280;7273;48.902;9.410;2023-07-09T13:11:35;98246.28;;;37.84;27.52
9187;BME280;7273;48.902;9.410;2023-07-09T13:14:05;98247.44;;;37.74;27.38
9187;BME280;7273;48.902;9.410;2023-07-09T13:16:38;98233.28;;;37.61;26.70
9187;BME280;7273;48.902;9.410;2023-07-09T13:19:03;98231.91;;;37.41;27.89
9187;BME280;7273;48.902;9.410;2023-07-09T13:21:29;98233.44;;;37.17;28.07
9187;BME280;7273;48.902;9.410;2023-07-09T13:23:55;98233.94;;;36.87;27.64
9187;BME280;7273;48.902;9.410;2023-07-09T13:26:20;98230.78;;;36.85;27.94
9187;BME280;7273;48.902;9.410;2023-07-09T13:28:46;98224.63;;;36.74;27.43
9187;BME280;7273;48.902;9.410;2023-07-09T13:31:19;98217.13;;;36.83;26.75
9187;BME280;7273;48.902;9.410;2023-07-09T13:33:52;98221.88;;;36.86;26.91
9187;BME280;7273;48.902;9.410;2023-07-09T13:36:19;98212.63;;;36.86;27.51
9187;BME280;7273;48.902;9.410;2023-07-09T13:38:44;98222.66;;;36.87;26.95
9187;BME280;7273;48.902;9.410;2023-07-09T13:41:15;98217.97;;;36.68;26.87
9187;BME280;7273;48.902;9.410;2023-07-09T13:43:44;98218.00;;;36.80;27.25
9187;BME280;7273;48.902;9.410;2023-07-09T13:46:09;98214.84;;;36.78;26.88
9187;BME280;7273;48.902;9.410;2023-07-09T13:48:36;98211.94;;;36.82;26.86
9187;BME280;7273;48.902;9.410;2023-07-09T13:51:13;98213.00;;;36.72;26.01
9187;BME280;7273;48.902;9.410;2023-07-09T13:53:39;98205.84;;;36.55;27.02